Time;durP1;ratioP1;P1;durP2;ratioP2;P2;SDS_P1;SDS_P2;PMS_P1;PMS_P2;Temp;Humidity;BMP_temperature;BMP_pressure;BME280_temperature;BME280_humidity;BME280_pressure;Samples;Min_cycle;Max_cycle;Signal;HPM_P1;HPM_P2
2021/07/27 00:01:48;;;;;;;8.10;7.30;;;;;;;19.28;77.20;101074.13;3585381;40;20242;-79
2021/07/27 00:04:13;;;;;;;8.77;7.83;;;;;;;19.30;76.95;101074.97;3583050;40;20244;-79
2021/07/27 00:06:39;;;;;;;7.33;6.70;;;;;;;19.25;77.40;101073.31;3592570;40;20237;-79
2021/07/27 00:09:04;;;;;;;8.67;7.33;;;;;;;19.12;77.13;101071.72;3591932;40;20236;-79
2021/07/27 00:11:29;;;;;;;7.53;6.60;;;;;;;19.08;77.29;101064.81;3593012;40;20241;-79
2021/07/27 00:13:54;;;;;;;7.20;6.50;;;;;;;19.01;77.37;101063.16;3591985;40;20256;-79
2021/07/27 00:16:20;;;;;;;5.20;4.37;;;;;;;18.97;77.45;101058.91;3591814;40;20247;-79
2021/07/27 00:18:45;;;;;;;6.07;5.47;;;;;;;19.00;77.24;101064.91;3591962;40;20221;-78
2021/07/27 00:21:10;;;;;;;5.47;4.97;;;;;;;18.99;77.14;101059.75;3584726;40;20234;-79
2021/07/27 00:23:35;;;;;;;9.30;8.30;;;;;;;18.92;77.48;101060.66;3582840;40;20248;-78
2021/07/27 00:26:12;;;;;;;5.33;4.83;;;;;;;18.90;77.38;101050.31;3582296;40;20612;-79
2021/07/27 00:28:37;;;;;;;8.13;6.53;;;;;;;18.91;77.24;101044.25;3581243;40;20321;-79
2021/07/27 00:31:02;;;;;;;9.07;7.07;;;;;;;18.87;76.96;101039.09;3592371;40;20230;-79
2021/07/27 00:33:28;;;;;;;6.77;5.73;;;;;;;18.89;77.15;101048.59;3583069;40;20256;-79
2021/07/27 00:35:53;;;;;;;6.33;5.73;;;;;;;19.01;77.13;101051.06;3592435;40;20221;-80
2021/07/27 00:38:20;;;;;;;6.57;5.97;;;;;;;18.89;77.54;101050.34;3592837;40;20237;-79
2021/07/27 00:40:46;;;;;;;9.00;8.10;;;;;;;19.12;76.96;101056.13;3574054;40;20226;-78
2021/07/27 00:43:13;;;;;;;8.50;7.13;;;;;;;19.05;76.74;101060.53;3581512;40;20312;-79
2021/07/27 00:45:39;;;;;;;8.50;7.67;;;;;;;18.99;77.29;101062.34;3573279;40;20230;-79
2021/07/27 00:48:05;;;;;;;7.70;6.70;;;;;;;19.01;77.10;101065.75;3582109;40;20214;-78
2021/07/27 00:50:30;;;;;;;8.40;7.47;;;;;;;18.98;77.27;101058.88;3581708;40;20229;-79
2021/07/27 00:52:57;;;;;;;8.27;7.17;;;;;;;18.90;77.29;101062.44;3562750;40;20263;-79
2021/07/27 00:55:24;;;;;;;7.80;7.00;;;;;;;18.87;77.58;101057.25;3562772;40;20220;-79
2021/07/27 00:57:49;;;;;;;7.67;6.23;;;;;;;18.79;77.36;101056.50;3561494;40;20282;-78
2021/07/27 01:00:15;;;;;;;6.20;5.60;;;;;;;18.84;77.25;101060.75;3561698;40;20239;-79
2021/07/27 01:02:40;;;;;;;8.60;6.90;;;;;;;18.85;77.17;101061.63;3552588;40;20232;-79
2021/07/27 01:05:06;;;;;;;7.50;6.67;;;;;;;18.77;77.28;101059.13;3562334;40;20289;-79
2021/07/27 01:07:31;;;;;;;7.47;5.50;;;;;;;18.84;76.98;101062.50;3561992;40;20270;-79
2021/07/27 01:09:57;;;;;;;6.67;5.90;;;;;;;18.92;76.49;101073.66;3561503;40;20239;-79
2021/07/27 01:12:22;;;;;;;10.17;7.57;;;;;;;18.72;77.28;101065.22;3552619;40;20227;-79
2021/07/27 01:14:47;;;;;;;7.30;5.60;;;;;;;18.63;77.43;101068.78;3561777;40;20241;-79
2021/07/27 01:17:13;;;;;;;4.83;3.97;;;;;;;18.63;77.31;101066.19;3569541;40;20222;-79
2021/07/27 01:19:51;;;;;;;8.07;6.93;;;;;;;18.81;77.13;101062.53;3571417;40;20714;-78
2021/07/27 01:38:58;;;;;;;7.70;7.00;;;;;;;19.24;75.92;101061.19;3571602;40;20311;-79
2021/07/27 01:43:50;;;;;;;7.93;7.13;;;;;;;19.43;75.05;101060.94;3571963;40;20550;-79
2021/07/27 01:46:16;;;;;;;8.50;6.60;;;;;;;19.23;76.23;101064.66;3559919;40;20652;-79
2021/07/27 01:48:43;;;;;;;8.93;7.63;;;;;;;18.93;76.74;101068.44;3561152;40;20262;-78
2021/07/27 01:51:08;;;;;;;11.77;7.97;;;;;;;19.41;75.49;101064.44;3570771;40;20235;-79
2021/07/27 01:53:44;;;;;;;9.60;8.07;;;;;;;19.54;74.92;101063.41;3571610;40;20335;-79
2021/07/27 01:56:10;;;;;;;8.77;7.33;;;;;;;19.29;75.86;101059.38;3571641;40;20242;-79
2021/07/27 01:58:36;;;;;;;10.20;8.63;;;;;;;19.19;76.02;101060.34;3571282;40;20227;-78
2021/07/27 02:01:01;;;;;;;11.43;8.27;;;;;;;19.14;76.81;101062.16;3570869;40;20245;-78
2021/07/27 02:03:26;;;;;;;10.70;7.23;;;;;;;19.43;75.17;101066.13;3571202;40;20291;-78
2021/07/27 02:05:51;;;;;;;11.03;7.57;;;;;;;19.43;74.98;101076.53;3571434;40;20562;-79
2021/07/27 02:08:17;;;;;;;12.23;6.63;;;;;;;19.27;75.33;101082.81;3571043;40;20230;-79
2021/07/27 02:10:46;;;;;;;11.07;6.77;;;;;;;19.11;75.96;101075.19;3561648;40;20505;-79
2021/07/27 02:13:24;;;;;;;10.10;6.77;;;;;;;19.20;75.32;101077.69;3570987;40;20250;-79
2021/07/27 02:15:50;;;;;;;8.63;7.03;;;;;;;18.91;76.27;101070.22;3561462;40;20234;-79
2021/07/27 02:18:15;;;;;;;8.47;7.50;;;;;;;18.64;76.90;101077.41;3571212;40;20215;-79
2021/07/27 02:20:48;;;;;;;7.17;4.40;;;;;;;18.55;77.58;101082.66;3576701;40;20517;-78
2021/07/27 02:23:14;;;;;;;11.20;6.50;;;;;;;18.39;77.68;101079.38;3566242;40;20280;-79
2021/07/27 02:25:40;;;;;;;5.37;4.70;;;;;;;18.34;77.88;101072.50;3567098;40;20242;-78
2021/07/27 02:28:06;;;;;;;6.33;5.77;;;;;;;18.37;77.50;101083.69;3565694;40;20624;-78
2021/07/27 02:30:36;;;;;;;13.37;7.20;;;;;;;18.65;77.44;101085.19;3570909;40;20219;-78
2021/07/27 02:33:02;;;;;;;11.90;7.53;;;;;;;19.16;75.31;101086.38;3570018;40;20292;-79
2021/07/27 02:35:30;;;;;;;11.13;7.43;;;;;;;19.23;74.67;101083.72;3567511;40;20584;-79
2021/07/27 02:37:56;;;;;;;11.70;7.10;;;;;;;19.13;74.61;101084.69;3561914;40;20221;-79
2021/07/27 02:40:21;;;;;;;11.67;7.73;;;;;;;19.18;74.76;101087.22;3564415;40;20238;-78
2021/07/27 02:42:48;;;;;;;12.67;7.30;;;;;;;19.28;74.50;101088.84;3560410;40;20219;-79
2021/07/27 02:45:13;;;;;;;15.00;6.90;;;;;;;19.13;74.54;101089.00;3570923;40;20641;-78
2021/07/27 02:47:42;;;;;;;11.77;6.87;;;;;;;19.03;74.87;101082.19;3570892;40;20207;-78
2021/07/27 02:50:08;;;;;;;12.93;7.53;;;;;;;18.98;75.15;101082.22;3560909;40;20234;-78
2021/07/27 02:52:34;;;;;;;8.97;7.40;;;;;;;19.02;75.03;101089.09;3570902;40;20268;-78
2021/07/27 02:54:59;;;;;;;15.10;7.37;;;;;;;19.03;75.02;101082.19;3569784;40;20293;-78
2021/07/27 02:57:24;;;;;;;10.50;7.73;;;;;;;19.21;74.68;101088.03;3571178;40;20222;-78
2021/07/27 02:59:50;;;;;;;14.97;8.47;;;;;;;18.74;75.78;101103.25;3565683;40;20233;-78
2021/07/27 03:02:19;;;;;;;9.23;7.23;;;;;;;19.10;74.63;101092.50;3561598;40;20601;-78
2021/07/27 03:04:44;;;;;;;9.70;6.03;;;;;;;19.00;74.77;101096.06;3570710;40;20316;-78
2021/07/27 03:07:09;;;;;;;10.03;6.67;;;;;;;18.65;75.88;101105.09;3561899;40;20555;-79
2021/07/27 03:10:17;;;;;;;9.30;6.70;;;;;;;18.70;76.40;101106.75;3563774;40;20524;-79
2021/07/27 03:12:23;;;;;;;8.67;7.37;;;;;;;18.81;76.15;101099.75;3570263;40;20547;-79
2021/07/27 03:14:48;;;;;;;10.03;7.90;;;;;;;19.16;74.53;101105.41;3559903;40;20543;-78
2021/07/27 03:17:14;;;;;;;8.50;7.70;;;;;;;19.02;75.21;101098.66;3560700;40;20234;-78
2021/07/27 03:19:39;;;;;;;9.53;7.03;;;;;;;18.85;75.60;101098.84;3568121;40;20234;-78
2021/07/27 03:22:04;;;;;;;11.57;7.10;;;;;;;18.84;75.40;101093.66;3570682;40;20227;-78
2021/07/27 03:24:29;;;;;;;7.33;6.20;;;;;;;18.88;75.54;101090.16;3569315;40;20616;-78
2021/07/27 03:26:55;;;;;;;7.57;5.80;;;;;;;18.66;76.14;101086.03;3570684;40;20259;-78
2021/07/27 03:29:20;;;;;;;7.30;6.60;;;;;;;18.68;75.92;101087.75;3562923;40;20223;-79
2021/07/27 03:31:45;;;;;;;8.77;6.90;;;;;;;18.73;75.66;101087.69;3567934;40;20223;-78
2021/07/27 03:34:12;;;;;;;10.90;7.57;;;;;;;18.75;75.85;101094.59;3570350;40;20644;-78
2021/07/27 03:36:38;;;;;;;15.33;7.30;;;;;;;18.84;75.30;101088.47;3561337;40;20261;-79
2021/07/27 03:39:03;;;;;;;14.60;7.30;;;;;;;18.81;75.25;101091.94;3555734;40;20250;-79
2021/07/27 03:41:28;;;;;;;11.30;7.10;;;;;;;18.71;75.77;101087.72;3560344;40;20383;-79
2021/07/27 03:43:53;;;;;;;8.90;6.37;;;;;;;18.79;74.98;101092.84;3566775;40;20235;-78
2021/07/27 03:46:19;;;;;;;7.47;6.37;;;;;;;18.64;76.12;101099.03;3570846;40;20261;-78
2021/07/27 03:48:44;;;;;;;10.30;6.93;;;;;;;18.45;76.83;101097.47;3571063;40;20239;-79
2021/07/27 03:51:12;;;;;;;13.97;7.70;;;;;;;18.59;76.25;101098.22;3569411;40;20233;-78
2021/07/27 03:53:37;;;;;;;10.17;7.13;;;;;;;18.38;76.83;101100.97;3564732;40;20251;-78
2021/07/27 03:56:02;;;;;;;9.43;7.20;;;;;;;18.37;76.86;101101.84;3552830;40;20230;-78
2021/07/27 03:58:32;;;;;;;12.57;8.20;;;;;;;18.52;76.03;101099.13;3568923;40;20226;-79
2021/07/27 04:00:57;;;;;;;11.83;7.97;;;;;;;18.32;76.74;101101.00;3569595;40;20237;-79
2021/07/27 04:03:22;;;;;;;8.77;5.90;;;;;;;18.28;77.15;101104.50;3571272;40;20242;-78
2021/07/27 04:05:47;;;;;;;9.23;6.77;;;;;;;18.33;76.83;101110.53;3568120;40;20226;-78
2021/07/27 04:08:13;;;;;;;11.73;8.13;;;;;;;18.51;76.23;101104.34;3568035;40;20223;-77
2021/07/27 04:10:38;;;;;;;8.20;7.40;;;;;;;18.29;76.48;101100.19;3567969;40;20776;-78
2021/07/27 04:13:04;;;;;;;8.93;7.37;;;;;;;18.25;76.94;101099.34;3569185;40;20647;-79
2021/07/27 04:15:29;;;;;;;11.90;7.43;;;;;;;18.24;77.03;101113.16;3552535;40;20231;-78
2021/07/27 04:17:54;;;;;;;10.20;7.50;;;;;;;18.09;77.67;101112.41;3553298;40;20231;-78
2021/07/27 04:20:19;;;;;;;9.53;6.70;;;;;;;18.31;76.82;101112.25;3568702;40;20639;-78
2021/07/27 04:22:47;;;;;;;11.20;8.00;;;;;;;18.23;77.02;101115.78;3565934;40;20231;-79
2021/07/27 04:25:12;;;;;;;12.90;8.40;;;;;;;18.58;75.55;101116.38;3559239;40;20275;-78
2021/07/27 04:27:37;;;;;;;9.17;7.10;;;;;;;18.45;75.97;101119.94;3569375;40;20239;-79
2021/07/27 04:30:03;;;;;;;11.37;7.47;;;;;;;18.60;75.41;101112.06;3560327;40;20289;-78
2021/07/27 04:32:29;;;;;;;10.23;8.10;;;;;;;18.56;75.31;101113.78;3560453;40;20518;-78
2021/07/27 04:34:54;;;;;;;10.75;7.93;;;;;;;18.44;75.98;101118.22;3560771;40;20324;-78
2021/07/27 04:37:22;;;;;;;9.57;8.03;;;;;;;18.41;76.12;101123.44;3560543;40;20215;-78
2021/07/27 04:39:50;;;;;;;7.43;6.57;;;;;;;18.44;75.57;101124.28;3561282;40;20242;-79
2021/07/27 04:42:16;;;;;;;8.57;6.97;;;;;;;18.56;75.52;101118.97;3561266;40;20607;-78
2021/07/27 04:44:41;;;;;;;10.43;7.40;;;;;;;18.54;75.61;101125.94;3570517;40;20356;-78
2021/07/27 04:47:06;;;;;;;7.17;6.33;;;;;;;18.57;75.63;101133.66;3561813;40;20471;-78
2021/07/27 04:49:31;;;;;;;10.90;7.83;;;;;;;18.56;75.55;101136.31;3570522;40;20223;-79
2021/07/27 04:52:00;;;;;;;9.90;8.10;;;;;;;18.72;75.89;101135.28;3571523;40;20309;-78
2021/07/27 04:54:28;;;;;;;9.00;7.90;;;;;;;18.85;74.97;101137.75;3570944;40;20253;-78
2021/07/27 04:56:53;;;;;;;10.23;7.70;;;;;;;18.87;74.86;101141.19;3571295;40;20230;-78
2021/07/27 04:59:19;;;;;;;10.77;8.13;;;;;;;19.10;74.39;101136.63;3570333;40;20269;-78
2021/07/27 05:01:44;;;;;;;8.87;6.67;;;;;;;19.03;74.65;101142.75;3570681;40;20226;-78
2021/07/27 05:04:09;;;;;;;6.93;6.37;;;;;;;18.96;74.90;101138.50;3571157;40;20238;-78
2021/07/27 05:06:36;;;;;;;9.63;8.63;;;;;;;19.01;74.69;101141.03;3562087;40;20281;-78
2021/07/27 05:09:02;;;;;;;12.40;8.97;;;;;;;19.24;74.01;101139.09;3571593;40;20234;-79
2021/07/27 05:11:27;;;;;;;8.07;6.90;;;;;;;19.04;74.64;101139.31;3562477;40;20234;-78
2021/07/27 05:13:54;;;;;;;10.87;8.43;;;;;;;19.23;73.90;101138.25;3571362;40;20242;-78
2021/07/27 05:16:20;;;;;;;8.20;7.30;;;;;;;19.42;73.69;101137.16;3570182;40;20233;-78
2021/07/27 05:18:46;;;;;;;10.37;8.17;;;;;;;19.66;72.62;101136.84;3568050;40;20224;-78
2021/07/27 05:21:11;;;;;;;11.07;8.60;;;;;;;19.30;73.68;101139.06;3560473;40;20231;-78
2021/07/27 05:23:36;;;;;;;10.07;7.77;;;;;;;19.35;74.19;101137.25;3556604;40;20250;-79
2021/07/27 05:26:04;;;;;;;8.83;7.90;;;;;;;19.55;73.58;101137.88;3571244;40;20233;-79
2021/07/27 05:28:29;;;;;;;8.20;7.37;;;;;;;19.52;74.05;101135.31;3561902;40;20253;-79
2021/07/27 05:30:55;;;;;;;9.20;8.07;;;;;;;19.58;74.01;101140.44;3562357;40;20227;-78
2021/07/27 05:33:20;;;;;;;9.70;8.80;;;;;;;19.83;72.06;101131.44;3562066;40;20312;-78
2021/07/27 05:35:45;;;;;;;7.90;6.50;;;;;;;19.65;73.43;101131.66;3562140;40;20223;-79
2021/07/27 05:38:11;;;;;;;11.00;9.57;;;;;;;19.46;74.46;101138.84;3562321;40;20265;-79
2021/07/27 05:40:36;;;;;;;10.73;9.63;;;;;;;19.79;73.27;101135.81;3571297;40;20598;-79
2021/07/27 05:43:01;;;;;;;12.30;10.57;;;;;;;20.11;72.21;101135.41;3562292;40;20234;-79
2021/07/27 05:45:27;;;;;;;12.90;9.73;;;;;;;20.20;71.64;101130.94;3562392;40;20234;-79
2021/07/27 05:47:53;;;;;;;12.10;10.47;;;;;;;20.35;71.03;101132.41;3562017;40;20367;-79
2021/07/27 05:50:19;;;;;;;12.53;11.23;;;;;;;20.36;70.09;101134.16;3570695;40;20282;-78
2021/07/27 05:52:44;;;;;;;12.90;11.60;;;;;;;20.37;70.92;101133.28;3561867;40;20262;-79
2021/07/27 05:55:10;;;;;;;12.40;10.83;;;;;;;20.37;70.73;101135.88;3570452;40;20223;-79
2021/07/27 05:57:35;;;;;;;14.43;12.77;;;;;;;20.60;69.21;101126.78;3572107;40;20233;-78
2021/07/27 06:00:00;;;;;;;13.70;12.23;;;;;;;20.62;69.47;101130.25;3567636;40;20276;-79
2021/07/27 06:02:26;;;;;;;12.40;11.10;;;;;;;20.42;70.65;101126.25;3561435;40;20596;-79
2021/07/27 06:04:51;;;;;;;13.50;12.10;;;;;;;20.16;71.85;101125.78;3570942;40;20239;-78
2021/07/27 06:07:17;;;;;;;12.67;11.37;;;;;;;20.46;70.24;101130.53;3571390;40;20233;-79
2021/07/27 06:09:42;;;;;;;12.33;11.07;;;;;;;20.55;70.28;101127.78;3571049;40;20246;-79
2021/07/27 06:12:08;;;;;;;14.10;12.60;;;;;;;20.72;69.65;101130.91;3561499;40;20234;-79
2021/07/27 06:14:33;;;;;;;14.03;12.27;;;;;;;20.90;69.15;101128.03;3570861;40;20241;-78
2021/07/27 06:16:58;;;;;;;14.53;13.03;;;;;;;20.76;69.98;101130.00;3571328;40;20222;-78
2021/07/27 06:19:25;;;;;;;14.20;12.70;;;;;;;20.85;69.46;101125.50;3562169;40;20234;-79
2021/07/27 06:21:50;;;;;;;13.73;12.33;;;;;;;20.96;69.27;101136.59;3571533;40;20254;-79
2021/07/27 06:24:17;;;;;;;14.13;12.73;;;;;;;21.03;68.61;101142.56;3561872;40;20238;-79
2021/07/27 06:26:42;;;;;;;14.03;12.57;;;;;;;20.98;68.45;101141.78;3571653;40;20218;-79
2021/07/27 06:29:08;;;;;;;13.77;12.40;;;;;;;21.04;67.99;101137.31;3570952;40;20233;-79
2021/07/27 06:31:34;;;;;;;12.63;11.33;;;;;;;21.05;68.93;101143.41;3570846;40;20227;-79
2021/07/27 06:33:59;;;;;;;13.00;11.73;;;;;;;21.28;68.12;101133.41;3571491;40;20261;-78
2021/07/27 06:36:25;;;;;;;12.63;11.33;;;;;;;21.36;67.62;101141.91;3571111;40;20227;-78
2021/07/27 06:38:50;;;;;;;13.77;12.20;;;;;;;21.43;67.43;101139.13;3570603;40;20222;-79
2021/07/27 06:41:15;;;;;;;14.50;11.93;;;;;;;21.53;67.26;101143.31;3570689;40;20218;-78
2021/07/27 06:43:42;;;;;;;12.87;11.60;;;;;;;21.55;67.90;101140.63;3561837;40;20324;-79
2021/07/27 06:46:08;;;;;;;13.27;11.87;;;;;;;21.69;66.97;101144.72;3571016;40;20210;-79
2021/07/27 06:48:34;;;;;;;12.93;11.17;;;;;;;21.76;66.62;101148.06;3570965;40;20226;-78
2021/07/27 06:51:10;;;;;;;11.13;10.07;;;;;;;21.95;65.90;101144.16;3571106;40;20219;-79
2021/07/27 06:53:35;;;;;;;11.47;10.27;;;;;;;21.97;65.95;101140.63;3561660;40;20246;-79
2021/07/27 06:56:01;;;;;;;13.07;11.00;;;;;;;22.32;63.95;101144.19;3571292;40;20230;-79
2021/07/27 06:58:26;;;;;;;10.57;9.57;;;;;;;22.45;64.20;101136.06;3571316;40;20226;-78
2021/07/27 07:00:51;;;;;;;13.63;11.27;;;;;;;22.65;62.90;101144.25;3571339;40;20221;-78
2021/07/27 07:03:16;;;;;;;11.20;9.03;;;;;;;22.54;62.82;101143.66;3571448;40;20328;-79
2021/07/27 07:05:42;;;;;;;10.20;9.10;;;;;;;22.84;60.86;101134.19;3557874;40;20237;-79
2021/07/27 07:08:08;;;;;;;9.53;8.20;;;;;;;22.89;61.18;101137.53;3571542;40;20211;-79
2021/07/27 07:10:33;;;;;;;8.13;7.33;;;;;;;22.96;61.89;101128.63;3561760;40;20509;-79
2021/07/27 07:12:58;;;;;;;9.60;8.70;;;;;;;23.12;60.70;101132.56;3570656;40;20625;-79
2021/07/27 07:15:23;;;;;;;9.63;8.60;;;;;;;23.14;60.65;101139.47;3571036;40;20228;-79
2021/07/27 07:17:49;;;;;;;9.87;8.97;;;;;;;23.28;59.71;101139.09;3561672;40;20285;-79
2021/07/27 07:20:15;;;;;;;10.33;9.30;;;;;;;23.42;58.62;101143.06;3570900;40;20222;-80
2021/07/27 07:22:40;;;;;;;10.20;9.20;;;;;;;23.36;59.12;101142.38;3570694;40;20257;-79
2021/07/27 07:25:06;;;;;;;8.07;7.27;;;;;;;23.20;60.12;101143.72;3561602;40;20218;-79
2021/07/27 07:27:32;;;;;;;9.77;8.77;;;;;;;23.33;59.53;101142.44;3562049;40;20246;-79
2021/07/27 07:29:57;;;;;;;15.50;7.80;;;;;;;23.56;59.31;101133.06;3567766;40;20222;-79
2021/07/27 07:32:23;;;;;;;9.10;8.17;;;;;;;23.67;59.00;101140.59;3566348;40;20211;-79
2021/07/27 07:34:49;;;;;;;9.67;7.70;;;;;;;23.73;58.86;101140.41;3560907;40;20523;-79
2021/07/27 07:37:15;;;;;;;9.20;8.30;;;;;;;23.64;59.08;101133.72;3560655;40;20578;-80
2021/07/27 07:39:40;;;;;;;11.83;9.50;;;;;;;23.86;58.29;101131.31;3560646;40;20653;-79
2021/07/27 07:42:06;;;;;;;7.60;6.90;;;;;;;23.79;59.32;101127.13;3560884;40;20231;-79
2021/07/27 07:44:33;;;;;;;8.63;7.83;;;;;;;24.20;57.37;101127.63;3560866;40;20286;-79
2021/07/27 07:46:58;;;;;;;10.20;9.20;;;;;;;24.26;56.19;101127.41;3561240;40;20225;-80
2021/07/27 07:49:24;;;;;;;9.27;8.33;;;;;;;24.30;56.74;101129.03;3561853;40;20476;-80
2021/07/27 07:51:50;;;;;;;7.40;6.72;;;;;;;24.35;58.12;101127.13;3552818;40;20238;-80
2021/07/27 07:54:17;;;;;;;8.90;8.00;;;;;;;24.56;55.60;101126.44;3562223;40;20322;-78
2021/07/27 07:56:46;;;;;;;9.17;8.17;;;;;;;24.65;56.51;101131.41;3562575;40;20633;-79
2021/07/27 07:59:12;;;;;;;8.97;8.17;;;;;;;24.53;56.08;101131.78;3562452;40;20241;-79
2021/07/27 08:01:37;;;;;;;8.50;7.70;;;;;;;24.53;55.75;101131.78;3562490;40;20237;-79
2021/07/27 08:04:03;;;;;;;9.33;7.70;;;;;;;24.65;56.00;101135.78;3564066;40;20242;-80
2021/07/27 08:06:30;;;;;;;9.87;8.87;;;;;;;24.58;55.19;101140.34;3553299;40;20669;-79
2021/07/27 08:08:55;;;;;;;7.40;6.70;;;;;;;24.56;55.46;101136.91;3570501;40;20222;-79
2021/07/27 08:11:20;;;;;;;8.60;7.80;;;;;;;24.64;55.76;101141.94;3571957;40;20235;-80
2021/07/27 08:13:45;;;;;;;7.80;7.00;;;;;;;24.55;55.17;101135.22;3572154;40;20639;-79
2021/07/27 08:16:11;;;;;;;8.83;7.27;;;;;;;24.37;55.58;101142.78;3562542;40;20227;-78
2021/07/27 08:18:37;;;;;;;7.93;7.13;;;;;;;24.31;55.52;101143.00;3562296;40;20685;-79
2021/07/27 08:21:03;;;;;;;6.40;5.73;;;;;;;24.21;56.16;101149.44;3571846;40;20257;-79
2021/07/27 08:23:28;;;;;;;4.93;4.43;;;;;;;24.15;54.88;101139.13;3562363;40;20246;-80
2021/07/27 08:25:54;;;;;;;4.77;4.37;;;;;;;24.14;54.44;101145.28;3562557;40;20219;-79
2021/07/27 08:28:19;;;;;;;4.37;3.97;;;;;;;24.10;55.11;101144.53;3572149;40;20249;-79
2021/07/27 08:30:44;;;;;;;5.63;4.57;;;;;;;24.15;55.08;101147.88;3572045;40;20610;-80
2021/07/27 08:33:09;;;;;;;5.55;4.95;;;;;;;24.16;54.93;101146.09;3562683;40;20297;-80
2021/07/27 08:35:35;;;;;;;5.27;4.77;;;;;;;24.20;55.11;101153.81;3572037;40;20225;-79
2021/07/27 08:38:00;;;;;;;5.23;4.43;;;;;;;23.93;56.04;101149.41;3570850;40;20247;-80
2021/07/27 08:40:26;;;;;;;6.43;5.60;;;;;;;24.05;54.95;101151.69;3562733;40;20245;-79
2021/07/27 08:42:51;;;;;;;6.53;5.35;;;;;;;23.82;56.33;101154.09;3571928;40;20214;-79
2021/07/27 08:45:16;;;;;;;5.80;5.20;;;;;;;23.81;56.76;101159.38;3571953;40;20237;-79
2021/07/27 08:47:47;;;;;;;7.13;5.03;;;;;;;23.73;57.14;101159.59;3572369;40;20277;-78
2021/07/27 08:50:13;;;;;;;6.70;5.65;;;;;;;23.76;55.80;101163.88;3572049;40;20316;-79
2021/07/27 08:52:38;;;;;;;6.47;5.80;;;;;;;23.60;57.03;101173.06;3572129;40;20219;-78
2021/07/27 08:55:08;;;;;;;7.77;6.27;;;;;;;23.32;58.69;101185.19;3571559;40;20233;-78
2021/07/27 08:57:34;;;;;;;7.27;6.57;;;;;;;23.01;61.67;101185.09;3562073;40;20231;-77
2021/07/27 08:59:59;;;;;;;8.87;7.17;;;;;;;22.69;62.29;101195.50;3561899;40;20235;-77
2021/07/27 09:02:29;;;;;;;8.70;7.87;;;;;;;22.47;64.90;101209.13;3561487;40;20231;-77
2021/07/27 09:05:23;;;;;;;9.63;8.70;;;;;;;21.93;66.66;101201.56;3570908;40;20249;-78
2021/07/27 09:07:49;;;;;;;9.77;8.07;;;;;;;21.56;68.47;101197.13;3562637;40;20238;-79
2021/07/27 09:10:20;;;;;;;8.03;7.33;;;;;;;21.49;69.10;101195.50;3571484;40;20556;-79
2021/07/27 09:12:56;;;;;;;11.07;8.87;;;;;;;21.60;69.89;101198.78;3571459;40;20275;-79
2021/07/27 09:15:24;;;;;;;8.23;7.43;;;;;;;21.82;68.12;101203.56;3571031;40;20260;-79
2021/07/27 09:17:53;;;;;;;8.20;7.40;;;;;;;21.83;68.34;101202.66;3571789;40;20230;-79
2021/07/27 09:20:26;;;;;;;6.87;6.27;;;;;;;22.17;70.75;101193.25;3562077;40;20219;-79
2021/07/27 09:22:51;;;;;;;7.67;6.97;;;;;;;22.74;66.48;101183.19;3572182;40;20234;-79
2021/07/27 09:25:17;;;;;;;8.40;7.60;;;;;;;23.16;65.05;101182.09;3562092;40;20246;-79
2021/07/27 09:27:42;;;;;;;8.53;7.73;;;;;;;23.47;64.30;101183.00;3561943;40;20648;-79
2021/07/27 09:30:08;;;;;;;8.13;7.33;;;;;;;23.78;64.20;101178.63;3570731;40;20226;-79
2021/07/27 09:32:33;;;;;;;9.13;8.23;;;;;;;23.96;62.36;101177.25;3571176;40;20226;-79
2021/07/27 09:35:03;;;;;;;8.73;7.93;;;;;;;23.91;61.60;101179.16;3561645;40;20253;-79
2021/07/27 09:37:29;;;;;;;7.97;7.27;;;;;;;23.73;60.72;101177.91;3571876;40;20286;-79
2021/07/27 09:40:05;;;;;;;8.47;7.77;;;;;;;23.66;61.76;101184.19;3571354;40;20277;-78
2021/07/27 09:42:30;;;;;;;7.63;7.03;;;;;;;23.20;62.78;101180.31;3571675;40;20233;-79
2021/07/27 09:44:56;;;;;;;7.53;6.87;;;;;;;23.18;63.31;101174.22;3562302;40;20286;-79
2021/07/27 09:47:22;;;;;;;8.33;7.53;;;;;;;23.11;63.08;101181.34;3562187;40;20230;-80
2021/07/27 09:49:47;;;;;;;10.67;8.43;;;;;;;23.04;63.72;101182.44;3571730;40;20312;-78
2021/07/27 09:52:12;;;;;;;9.60;8.70;;;;;;;23.04;64.01;101185.03;3571447;40;20218;-79
2021/07/27 09:54:39;;;;;;;10.03;9.03;;;;;;;23.11;63.15;101183.13;3562263;40;20253;-79
2021/07/27 09:57:04;;;;;;;9.47;8.67;;;;;;;23.14;64.52;101188.25;3570989;40;20385;-79
2021/07/27 09:59:30;;;;;;;9.30;8.40;;;;;;;23.21;65.42;101175.00;3570569;40;20228;-80
2021/07/27 10:02:04;;;;;;;8.60;7.83;;;;;;;23.41;64.15;101180.56;3562646;40;20226;-79
2021/07/27 10:04:48;;;;;;;9.33;8.53;;;;;;;23.75;61.77;101181.31;3562649;40;20242;-79
2021/07/27 10:07:13;;;;;;;9.33;8.53;;;;;;;24.15;60.63;101176.66;3571802;40;20230;-79
2021/07/27 10:09:39;;;;;;;8.87;7.93;;;;;;;24.45;58.97;101172.22;3571094;40;20269;-77
2021/07/27 10:12:13;;;;;;;8.83;7.97;;;;;;;24.66;57.81;101175.03;3571528;40;20227;-79
2021/07/27 10:14:40;;;;;;;9.20;8.30;;;;;;;24.77;58.52;101179.94;3564998;40;20237;-76
2021/07/27 10:17:06;;;;;;;6.40;5.87;;;;;;;24.54;58.13;101180.63;3569733;40;20230;-79
2021/07/27 10:19:50;;;;;;;8.30;7.60;;;;;;;24.43;57.69;101177.50;3570293;40;20226;-76
2021/07/27 10:22:16;;;;;;;9.60;8.70;;;;;;;24.30;57.22;101177.91;3559797;40;20235;-77
2021/07/27 10:24:46;;;;;;;8.95;8.02;;;;;;;24.18;58.20;101173.94;3566742;40;20316;-79
2021/07/27 10:27:18;;;;;;;8.77;7.97;;;;;;;24.04;58.08;101177.88;3561185;40;20271;-76
2021/07/27 10:29:44;;;;;;;9.80;8.80;;;;;;;24.06;56.72;101181.31;3559003;40;20604;-79
2021/07/27 10:32:27;;;;;;;9.37;8.47;;;;;;;24.04;56.61;101172.66;3571324;40;20219;-78
2021/07/27 10:34:53;;;;;;;8.15;7.35;;;;;;;24.25;57.53;101178.09;3561736;40;20249;-78
2021/07/27 10:37:19;;;;;;;11.38;8.63;;;;;;;24.66;55.42;101172.41;3571263;40;20245;-77
2021/07/27 10:39:55;;;;;;;9.60;8.70;;;;;;;24.96;53.70;101178.41;3562389;40;20234;-78
2021/07/27 10:42:22;;;;;;;10.00;9.00;;;;;;;25.10;54.00;101177.00;3561780;40;20520;-78
2021/07/27 10:44:49;;;;;;;8.93;8.18;;;;;;;25.24;55.46;101177.38;3560964;40;20590;-78
2021/07/27 10:47:21;;;;;;;7.65;6.95;;;;;;;25.27;55.72;101171.22;3561071;40;20239;-79
2021/07/27 10:50:01;;;;;;;9.65;8.73;;;;;;;25.25;54.90;101166.00;3551336;40;20598;-78
2021/07/27 10:52:26;;;;;;;9.93;8.93;;;;;;;25.06;55.62;101178.03;3560841;40;20219;-78
2021/07/27 10:54:56;;;;;;;9.52;8.52;;;;;;;24.84;55.29;101173.56;3560751;40;20245;-78
2021/07/27 10:57:27;;;;;;;8.30;7.50;;;;;;;24.63;55.84;101175.13;3560732;40;20267;-78
2021/07/27 10:59:53;;;;;;;9.25;8.45;;;;;;;24.83;55.03;101174.47;3561207;40;20294;-78
2021/07/27 11:02:23;;;;;;;10.23;9.13;;;;;;;24.94;53.44;101175.81;3561112;40;20223;-78
2021/07/27 11:04:48;;;;;;;9.90;9.00;;;;;;;24.81;54.27;101171.91;3551375;40;20294;-78
2021/07/27 11:07:15;;;;;;;10.05;8.82;;;;;;;24.76;55.14;101167.72;3568331;40;20214;-78
2021/07/27 11:09:50;;;;;;;9.70;8.70;;;;;;;24.87;54.92;101168.22;3561465;40;20246;-79
2021/07/27 11:12:33;;;;;;;10.13;9.23;;;;;;;25.26;51.59;101159.84;3561660;40;20315;-79
2021/07/27 11:15:20;;;;;;;9.10;8.20;;;;;;;25.36;52.81;101168.25;3570508;40;20241;-78
2021/07/27 11:17:59;;;;;;;9.07;8.18;;;;;;;25.39;52.52;101163.75;3567330;40;20271;-79
2021/07/27 11:20:34;;;;;;;8.98;8.05;;;;;;;25.55;52.09;101171.94;3580780;40;20249;-79
2021/07/27 11:23:20;;;;;;;7.80;7.03;;;;;;;25.41;50.31;101174.19;3574552;40;20230;-78
2021/07/27 11:25:53;;;;;;;7.30;6.70;;;;;;;25.29;50.89;101175.50;3565915;40;20241;-78
2021/07/27 11:28:20;;;;;;;7.70;6.47;;;;;;;25.24;51.28;101166.88;3570561;40;20617;-78
2021/07/27 11:30:46;;;;;;;7.45;6.75;;;;;;;25.42;52.36;101163.63;3570479;40;20235;-78
2021/07/27 11:33:11;;;;;;;8.38;7.68;;;;;;;25.62;51.91;101166.41;3568652;40;20231;-78
2021/07/27 11:35:45;;;;;;;8.73;7.90;;;;;;;25.82;51.35;101173.50;3574113;40;20512;-78
2021/07/27 11:38:11;;;;;;;9.05;8.15;;;;;;;25.98;49.95;101157.19;3571290;40;20246;-79
2021/07/27 11:40:36;;;;;;;9.43;8.52;;;;;;;26.10;50.41;101161.94;3563905;40;20243;-78